Terminal Aerodrome Forecast
Issued by NWS

Home | Current Version | Previous Version | Text Only | Print | Product List | Glossary On
Versions: 1 2 3 4 5 6 7 8 9 10 11 12 13 14 15 16 17 18 19 20 21 22 23 24 25 26 27 28 29 30 31 32 33 34 35
000
FTUS44 KFWD 280529
TAFGKY
TAF
KGKY 280529Z 2806/2906 02011KT P6SM BKN011 BKN200
     FM280800 02013G23KT P6SM VCSH SCT008 BKN010
     FM281200 01013G23KT P6SM VCSH OVC008
      TEMPO 2817/2821 4SM SHRA BKN015
     FM282100 01015G25KT P6SM BKN012
     FM290000 01013KT P6SM BKN025
     FM290300 01010KT P6SM SCT250=

USA.gov is the U.S. government's official web portal to all federal, state and local government web resources and services.